Time;durP1;ratioP1;P1;durP2;ratioP2;P2;SDS_P1;SDS_P2;PMS_P1;PMS_P2;Temp;Humidity;BMP_temperature;BMP_pressure;BME280_temperature;BME280_humidity;BME280_pressure;Samples;Min_cycle;Max_cycle;Signal;HPM_P1;HPM_P2
2021/01/03 00:01:44;;;;;;;23.38;12.35;;;;;;;;;;5092320;28;20020;-73
2021/01/03 00:04:10;;;;;;;23.15;11.75;;;;;;;;;;5070749;28;20481;-75
2021/01/03 00:06:36;;;;;;;24.75;12.43;;;;;;;;;;5067404;28;20451;-75
2021/01/03 00:09:10;;;;;;;22.60;11.82;;;;;;;;;;5086803;28;20020;-73
2021/01/03 00:11:36;;;;;;;24.90;12.50;;;;;;;;;;5066348;28;20016;-70
2021/01/03 00:14:02;;;;;;;20.25;12.25;;;;;;;;;;5092316;28;20020;-73
2021/01/03 00:16:29;;;;;;;17.70;10.90;;;;;;;;;;5068684;28;20020;-75
2021/01/03 00:18:55;;;;;;;21.40;12.20;;;;;;;;;;5074870;28;20484;-75
2021/01/03 00:21:21;;;;;;;17.20;10.38;;;;;;;;;;5096393;28;20025;-75
2021/01/03 00:23:47;;;;;;;14.20;9.50;;;;;;;;;;5096982;28;20382;-76
2021/01/03 00:26:13;;;;;;;17.00;9.77;;;;;;;;;;5097242;28;20028;-72
2021/01/03 00:28:39;;;;;;;16.05;10.38;;;;;;;;;;5092180;28;20024;-70
2021/01/03 00:31:05;;;;;;;20.58;9.75;;;;;;;;;;5089227;28;20540;-79
2021/01/03 00:33:31;;;;;;;16.40;9.70;;;;;;;;;;5095283;28;20017;-74
2021/01/03 00:35:57;;;;;;;16.38;10.75;;;;;;;;;;5096632;28;20020;-72
2021/01/03 00:38:24;;;;;;;16.20;9.60;;;;;;;;;;5096062;28;20024;-73
2021/01/03 00:40:50;;;;;;;15.20;9.68;;;;;;;;;;5096202;28;20050;-74
2021/01/03 00:43:16;;;;;;;16.63;10.65;;;;;;;;;;5088999;28;20104;-74
2021/01/03 00:45:42;;;;;;;19.02;10.65;;;;;;;;;;5090014;28;20036;-74
2021/01/03 00:48:10;;;;;;;16.60;11.77;;;;;;;;;;5098300;28;20054;-74
2021/01/03 00:50:36;;;;;;;18.45;11.10;;;;;;;;;;5099796;28;20081;-73
2021/01/03 00:53:02;;;;;;;20.88;11.65;;;;;;;;;;5096429;28;20032;-78
2021/01/03 00:55:28;;;;;;;18.08;11.15;;;;;;;;;;5095927;28;20490;-78
2021/01/03 00:57:55;;;;;;;15.48;9.60;;;;;;;;;;5095892;28;20028;-72
2021/01/03 01:00:23;;;;;;;18.13;11.05;;;;;;;;;;5070178;28;20115;-80
2021/01/03 01:02:49;;;;;;;16.65;10.48;;;;;;;;;;5089928;28;20024;-74
2021/01/03 01:05:15;;;;;;;15.98;10.32;;;;;;;;;;5071310;28;20029;-74
2021/01/03 01:07:42;;;;;;;18.88;10.30;;;;;;;;;;5088150;28;20031;-73
2021/01/03 01:10:10;;;;;;;19.02;11.43;;;;;;;;;;5096179;28;20020;-75
2021/01/03 01:12:36;;;;;;;17.13;11.20;;;;;;;;;;5094582;28;20032;-75
2021/01/03 01:15:06;;;;;;;14.50;9.38;;;;;;;;;;5092540;28;20103;-74
2021/01/03 01:17:33;;;;;;;18.83;11.38;;;;;;;;;;5095935;28;20089;-76
2021/01/03 01:19:59;;;;;;;21.92;12.38;;;;;;;;;;5096148;28;20024;-76
2021/01/03 01:22:25;;;;;;;18.17;10.50;;;;;;;;;;5096704;28;20024;-73
2021/01/03 01:24:51;;;;;;;22.80;11.52;;;;;;;;;;5096339;28;20077;-74
2021/01/03 01:27:17;;;;;;;19.70;11.70;;;;;;;;;;5094631;28;20028;-75
2021/01/03 01:29:43;;;;;;;19.73;11.02;;;;;;;;;;5083925;28;20174;-74
2021/01/03 01:32:09;;;;;;;19.27;11.02;;;;;;;;;;5073877;28;20044;-74
2021/01/03 01:34:35;;;;;;;17.20;10.32;;;;;;;;;;5095318;28;20504;-73
2021/01/03 01:37:01;;;;;;;22.65;11.23;;;;;;;;;;5095097;28;20816;-74
2021/01/03 01:39:27;;;;;;;17.95;11.55;;;;;;;;;;5076961;28;20024;-73
2021/01/03 01:41:53;;;;;;;24.70;11.75;;;;;;;;;;5095171;28;20420;-74
2021/01/03 01:44:19;;;;;;;26.40;13.23;;;;;;;;;;5080901;28;20101;-76
2021/01/03 01:46:51;;;;;;;24.42;12.15;;;;;;;;;;5094964;28;20016;-80
2021/01/03 01:49:17;;;;;;;18.05;11.18;;;;;;;;;;5094711;28;20020;-73
2021/01/03 01:51:45;;;;;;;23.77;11.10;;;;;;;;;;5094728;28;20408;-73
2021/01/03 01:54:11;;;;;;;20.55;10.90;;;;;;;;;;5093838;28;20024;-73
2021/01/03 01:56:58;;;;;;;22.13;12.10;;;;;;;;;;5094811;28;20103;-73
2021/01/03 01:59:41;;;;;;;19.52;12.00;;;;;;;;;;5094941;28;20035;-74
2021/01/03 02:02:11;;;;;;;19.00;11.65;;;;;;;;;;5094506;28;20028;-71
2021/01/03 02:04:51;;;;;;;19.63;12.07;;;;;;;;;;5094528;28;20382;-73
2021/01/03 02:07:20;;;;;;;24.45;13.00;;;;;;;;;;5094279;28;20101;-71
2021/01/03 02:10:05;;;;;;;17.90;11.00;;;;;;;;;;5062481;28;20021;-73
2021/01/03 02:12:36;;;;;;;18.35;11.20;;;;;;;;;;5093895;28;20047;-72
2021/01/03 02:15:04;;;;;;;23.77;11.15;;;;;;;;;;5094046;28;20221;-72
2021/01/03 02:17:30;;;;;;;21.58;12.40;;;;;;;;;;5094253;28;20537;-73
2021/01/03 02:19:57;;;;;;;20.92;11.25;;;;;;;;;;5094202;28;20539;-72
2021/01/03 02:22:23;;;;;;;22.42;12.55;;;;;;;;;;5068800;28;20048;-72
2021/01/03 02:25:09;;;;;;;22.33;12.27;;;;;;;;;;5074676;28;20025;-73
2021/01/03 02:27:53;;;;;;;19.02;11.20;;;;;;;;;;5091029;28;20052;-71
2021/01/03 02:30:20;;;;;;;19.27;11.65;;;;;;;;;;5093699;28;20032;-71
2021/01/03 02:32:50;;;;;;;20.27;12.07;;;;;;;;;;5093722;28;20501;-76
2021/01/03 02:35:17;;;;;;;29.85;12.57;;;;;;;;;;5093316;28;20082;-76
2021/01/03 02:37:46;;;;;;;23.92;13.00;;;;;;;;;;5094300;28;20024;-74
2021/01/03 02:40:17;;;;;;;28.92;13.60;;;;;;;;;;5107210;28;20054;-74
2021/01/03 02:42:43;;;;;;;23.55;12.52;;;;;;;;;;5106550;28;20105;-73
2021/01/03 02:45:20;;;;;;;23.33;12.07;;;;;;;;;;5089160;28;20024;-76
2021/01/03 02:47:47;;;;;;;25.88;14.40;;;;;;;;;;5094197;28;20103;-74
2021/01/03 02:50:20;;;;;;;22.02;12.85;;;;;;;;;;5093410;28;20062;-75
2021/01/03 02:52:46;;;;;;;26.55;13.75;;;;;;;;;;5093081;28;20024;-74
2021/01/03 02:55:14;;;;;;;21.80;11.68;;;;;;;;;;5093272;28;20032;-73
2021/01/03 02:57:40;;;;;;;22.83;12.20;;;;;;;;;;5061730;28;20032;-76
2021/01/03 03:00:09;;;;;;;19.65;11.90;;;;;;;;;;5079806;28;20024;-73
2021/01/03 03:02:35;;;;;;;23.00;12.93;;;;;;;;;;5093466;28;20017;-74
2021/01/03 03:05:02;;;;;;;24.70;12.70;;;;;;;;;;5061218;28;20081;-73
2021/01/03 03:07:28;;;;;;;21.23;13.13;;;;;;;;;;5093448;28;20020;-74
2021/01/03 03:09:54;;;;;;;23.80;13.30;;;;;;;;;;5093341;28;20052;-75
2021/01/03 03:12:20;;;;;;;22.92;12.82;;;;;;;;;;5093071;28;20021;-73
2021/01/03 03:14:46;;;;;;;20.95;11.77;;;;;;;;;;5092230;28;20492;-74
2021/01/03 03:17:12;;;;;;;29.20;15.02;;;;;;;;;;5092926;28;20111;-73
2021/01/03 03:19:38;;;;;;;18.92;11.35;;;;;;;;;;5093252;28;20347;-74
2021/01/03 03:22:04;;;;;;;17.63;11.52;;;;;;;;;;5093145;28;20047;-74
2021/01/03 03:24:30;;;;;;;18.13;10.68;;;;;;;;;;5093184;28;20024;-73
2021/01/03 03:26:58;;;;;;;17.55;10.80;;;;;;;;;;5093179;28;20028;-73
2021/01/03 03:29:25;;;;;;;24.60;12.90;;;;;;;;;;5093134;28;20024;-72
2021/01/03 03:31:51;;;;;;;20.13;11.88;;;;;;;;;;5092566;28;20048;-72
2021/01/03 03:34:18;;;;;;;24.08;13.25;;;;;;;;;;5092506;28;20027;-74
2021/01/03 03:36:45;;;;;;;21.88;13.13;;;;;;;;;;5093251;28;20024;-75
2021/01/03 03:39:11;;;;;;;29.42;12.32;;;;;;;;;;5093045;28;20149;-71
2021/01/03 03:41:37;;;;;;;23.65;14.57;;;;;;;;;;5070547;28;20024;-73
2021/01/03 03:44:04;;;;;;;23.85;12.13;;;;;;;;;;5079037;28;20024;-74
2021/01/03 03:46:30;;;;;;;22.65;12.15;;;6.50;99.90;;;;;;5092725;28;20034;-73
2021/01/03 03:48:56;;;;;;;20.77;12.25;;;6.60;99.90;;;;;;5074832;28;20028;-73
2021/01/03 03:51:22;;;;;;;19.65;12.38;;;6.60;99.90;;;;;;5092553;28;20073;-74
2021/01/03 03:53:48;;;;;;;17.30;10.73;;;6.60;99.90;;;;;;5092238;28;20059;-74
2021/01/03 03:56:16;;;;;;;19.50;10.75;;;6.60;99.90;;;;;;5092313;28;20060;-72
2021/01/03 03:58:42;;;;;;;20.25;11.63;;;6.60;99.90;;;;;;5092933;28;20043;-70
2021/01/03 04:01:08;;;;;;;27.35;12.43;;;6.50;99.90;;;;;;5092601;28;20088;-73
2021/01/03 04:03:34;;;;;;;24.95;12.18;;;6.50;99.90;;;;;;5093146;28;20105;-72
2021/01/03 04:06:00;;;;;;;28.55;12.60;;;6.50;99.90;;;;;;5092778;28;20424;-73
2021/01/03 04:08:26;;;;;;;19.45;12.15;;;6.50;99.90;;;;;;5092242;28;20024;-74
2021/01/03 04:10:52;;;;;;;20.27;11.95;;;6.50;99.90;;;;;;5092841;28;20032;-73
2021/01/03 04:13:18;;;;;;;19.60;10.88;;;6.60;99.90;;;;;;5091720;28;20093;-71
2021/01/03 04:15:44;;;;;;;18.52;10.38;;;6.60;99.90;;;;;;5092307;28;20454;-72
2021/01/03 04:18:10;;;;;;;15.85;10.52;;;6.50;99.90;;;;;;5092392;28;20032;-73
2021/01/03 04:20:36;;;;;;;21.50;11.63;;;6.60;99.90;;;;;;5092629;28;20020;-73
2021/01/03 04:23:05;;;;;;;21.90;10.60;;;6.40;99.90;;;;;;5092928;28;20024;-73
2021/01/03 04:25:31;;;;;;;19.65;10.35;;;6.40;99.90;;;;;;5092631;28;20059;-73
2021/01/03 04:27:56;;;;;;;17.05;10.10;;;6.50;99.90;;;;;;5092605;28;20059;-72
2021/01/03 04:30:25;;;;;;;18.13;10.65;;;6.50;99.90;;;;;;5089128;28;20089;-73
2021/01/03 04:32:50;;;;;;;19.00;10.18;;;6.60;99.90;;;;;;5081988;28;20038;-75
2021/01/03 04:35:17;;;;;;;16.17;9.00;;;6.60;99.90;;;;;;5091156;28;20028;-74
2021/01/03 04:37:43;;;;;;;16.02;8.70;;;6.60;99.90;;;;;;5093183;28;20459;-74
2021/01/03 04:40:16;;;;;;;15.77;9.60;;;6.60;99.90;;;;;;5092545;28;20052;-73
2021/01/03 04:42:43;;;;;;;14.93;9.13;;;6.60;99.90;;;;;;5075751;28;20099;-73
2021/01/03 04:45:25;;;;;;;16.02;9.20;;;6.60;99.90;;;;;;5081471;28;20028;-74
2021/01/03 04:47:59;;;;;;;22.23;9.10;;;6.60;99.90;;;;;;5078182;28;20016;-74
2021/01/03 04:50:49;;;;;;;16.08;9.30;;;6.60;99.90;;;;;;5092295;28;20097;-74
2021/01/03 04:53:43;;;;;;;22.55;10.60;;;6.60;99.90;;;;;;5062132;28;20024;-74
2021/01/03 04:56:15;;;;;;;18.15;8.55;;;6.60;99.90;;;;;;5092098;28;20039;-74
2021/01/03 04:58:55;;;;;;;12.68;8.32;;;6.60;99.90;;;;;;5070754;28;20420;-72
2021/01/03 05:01:42;;;;;;;15.50;9.18;;;6.50;99.90;;;;;;5077488;28;20114;-73
2021/01/03 05:04:33;;;;;;;15.18;8.93;;;6.50;99.90;;;;;;5090497;28;20489;-73
2021/01/03 05:07:05;;;;;;;15.70;7.78;;;6.50;99.90;;;;;;5096195;28;20047;-74
2021/01/03 05:09:31;;;;;;;13.90;6.40;;;6.50;99.90;;;;;;5095472;28;20048;-74
2021/01/03 05:12:22;;;;;;;9.25;7.15;;;6.60;99.90;;;;;;5099506;28;20482;-74
2021/01/03 05:15:08;;;;;;;13.02;7.95;;;6.60;99.90;;;;;;5094529;28;20028;-73
2021/01/03 05:17:34;;;;;;;10.82;7.20;;;6.60;99.90;;;;;;5095457;28;20035;-72
2021/01/03 05:20:00;;;;;;;11.40;6.53;;;6.60;99.90;;;;;;5095292;28;20024;-72
2021/01/03 05:22:29;;;;;;;12.40;6.75;;;6.60;99.90;;;;;;5095405;28;20099;-72
2021/01/03 05:25:00;;;;;;;12.75;6.95;;;6.60;99.90;;;;;;5094958;28;20013;-72
2021/01/03 05:27:27;;;;;;;10.75;6.47;;;6.60;99.90;;;;;;5095397;28;20056;-73
2021/01/03 05:30:09;;;;;;;10.45;5.97;;;6.60;99.90;;;;;;5095442;28;20027;-73
2021/01/03 05:32:36;;;;;;;13.02;7.13;;;6.60;99.90;;;;;;5086721;28;20056;-73
2021/01/03 05:35:03;;;;;;;11.38;7.78;;;6.70;99.90;;;;;;5094274;28;20066;-73
2021/01/03 05:37:32;;;;;;;10.02;5.53;;;6.60;99.90;;;;;;5089349;28;20024;-73
2021/01/03 05:39:58;;;;;;;11.27;6.28;;;6.60;99.90;;;;;;5091076;28;20091;-74
2021/01/03 05:42:35;;;;;;;12.05;6.05;;;6.60;99.90;;;;;;5094610;28;20028;-75
2021/01/03 05:45:21;;;;;;;11.40;6.60;;;6.70;99.90;;;;;;5086376;28;20034;-73
2021/01/03 05:47:59;;;;;;;10.43;6.07;;;6.60;99.90;;;;;;5101466;28;20016;-74
2021/01/03 05:50:25;;;;;;;10.45;6.50;;;6.50;99.90;;;;;;5094996;28;20026;-74
2021/01/03 05:52:55;;;;;;;16.38;7.75;;;6.70;99.90;;;;;;5062427;28;20025;-74
2021/01/03 05:55:23;;;;;;;9.63;6.28;;;6.70;99.90;;;;;;5067339;28;20466;-73
2021/01/03 05:58:01;;;;;;;10.32;5.85;;;6.60;99.90;;;;;;5093259;28;20020;-75
2021/01/03 06:00:27;;;;;;;9.63;5.90;;;6.70;99.90;;;;;;5088507;28;20036;-72
2021/01/03 06:02:53;;;;;;;12.38;7.10;;;6.70;99.90;;;;;;5076500;28;20024;-74
2021/01/03 06:05:22;;;;;;;13.52;6.78;;;6.70;99.90;;;;;;5094712;28;20032;-73
2021/01/03 06:08:12;;;;;;;8.98;6.10;;;6.70;99.90;;;;;;5094598;28;20051;-76
2021/01/03 06:10:40;;;;;;;11.02;5.90;;;6.70;99.90;;;;;;5085682;28;20031;-74
2021/01/03 06:13:08;;;;;;;11.25;6.07;;;6.70;99.90;;;;;;5094206;28;20028;-74
2021/01/03 06:15:51;;;;;;;11.93;6.03;;;6.70;99.90;;;;;;5093832;28;20115;-72
2021/01/03 06:18:31;;;;;;;8.03;5.20;;;6.70;99.90;;;;;;5094096;28;20081;-74
2021/01/03 06:20:58;;;;;;;10.63;6.20;;;6.80;99.90;;;;;;5094463;28;20020;-73
2021/01/03 06:23:36;;;;;;;13.27;6.88;;;6.80;99.90;;;;;;5094443;28;20077;-73
2021/01/03 06:26:13;;;;;;;10.68;6.63;;;6.80;99.90;;;;;;5094554;28;20032;-75
2021/01/03 06:28:47;;;;;;;10.18;7.07;;;6.80;99.90;;;;;;5094309;28;20032;-73
2021/01/03 06:31:34;;;;;;;11.82;6.47;;;6.80;99.90;;;;;;5093754;28;20044;-74
2021/01/03 06:34:05;;;;;;;10.80;6.40;;;6.80;99.90;;;;;;5093446;28;20374;-75
2021/01/03 06:36:44;;;;;;;11.57;6.43;;;6.80;99.90;;;;;;5093052;28;20035;-75
2021/01/03 06:39:21;;;;;;;15.27;7.03;;;6.80;99.90;;;;;;5076270;28;20433;-75
2021/01/03 06:42:05;;;;;;;15.93;7.72;;;6.80;99.90;;;;;;5093679;28;20056;-76
2021/01/03 06:44:47;;;;;;;12.65;7.70;;;6.70;99.90;;;;;;5078467;28;20101;-74
2021/01/03 06:47:50;;;;;;;9.75;6.50;;;6.90;99.90;;;;;;5093037;28;20113;-73
2021/01/03 06:50:39;;;;;;;14.50;7.68;;;6.90;99.90;;;;;;5092479;28;20382;-75
2021/01/03 06:53:32;;;;;;;17.45;8.00;;;7.00;99.90;;;;;;5092789;28;20028;-75
2021/01/03 06:56:10;;;;;;;13.90;7.50;;;7.00;99.90;;;;;;5090903;28;20370;-76
2021/01/03 06:59:09;;;;;;;9.52;6.80;;;7.10;99.90;;;;;;5072955;28;20458;-74
2021/01/03 07:01:40;;;;;;;11.88;7.05;;;7.10;99.90;;;;;;5070902;28;20422;-74
2021/01/03 07:04:15;;;;;;;12.27;7.30;;;7.10;99.90;;;;;;5092239;28;20431;-75
2021/01/03 07:06:44;;;;;;;9.40;5.97;;;7.10;99.90;;;;;;5092269;28;20020;-73
2021/01/03 07:09:11;;;;;;;11.18;6.95;;;7.10;99.90;;;;;;5091050;28;20428;-76
2021/01/03 07:11:57;;;;;;;11.38;6.72;;;7.10;99.90;;;;;;5091565;28;20024;-76
2021/01/03 07:14:23;;;;;;;12.48;6.85;;;7.10;99.90;;;;;;5090020;28;20081;-75
2021/01/03 07:17:00;;;;;;;9.70;6.47;;;7.10;99.90;;;;;;5089051;28;20053;-77
2021/01/03 07:19:32;;;;;;;12.60;7.28;;;7.20;99.90;;;;;;5087641;28;20103;-76
2021/01/03 07:22:10;;;;;;;14.45;8.07;;;7.20;99.90;;;;;;5088190;28;20428;-79
2021/01/03 07:24:51;;;;;;;18.63;10.25;;;7.20;99.90;;;;;;5091277;28;20032;-77
2021/01/03 07:27:35;;;;;;;13.88;9.13;;;7.30;99.90;;;;;;5081164;28;20028;-74
2021/01/03 07:30:03;;;;;;;13.25;7.45;;;7.30;99.90;;;;;;5092662;28;20020;-74
2021/01/03 07:32:37;;;;;;;12.75;7.28;;;7.40;99.90;;;;;;5093344;28;20148;-75
2021/01/03 07:35:23;;;;;;;15.23;8.60;;;7.40;99.90;;;;;;5093067;28;20020;-75
2021/01/03 07:37:54;;;;;;;17.40;9.05;;;7.40;99.90;;;;;;5084864;28;20216;-74
2021/01/03 07:40:24;;;;;;;9.60;6.60;;;7.40;99.90;;;;;;5065973;28;20081;-73
2021/01/03 07:42:54;;;;;;;20.08;7.53;;;7.50;99.90;;;;;;5070775;28;20497;-71
2021/01/03 07:45:41;;;;;;;19.42;10.55;;;7.50;99.90;;;;;;5087033;28;20024;-74
2021/01/03 07:48:53;;;;;;;17.60;10.93;;;7.70;99.90;;;;;;5090272;28;20123;-72
2021/01/03 07:51:40;;;;;;;17.70;9.77;;;7.70;99.90;;;;;;5067187;28;20083;-72
2021/01/03 07:54:09;;;;;;;20.02;10.88;;;7.70;99.90;;;;;;5092135;28;20041;-70
2021/01/03 07:56:35;;;;;;;21.15;13.32;;;7.60;99.90;;;;;;5091511;28;20031;-71
2021/01/03 07:59:01;;;;;;;22.90;13.85;;;7.60;99.90;;;;;;5087866;28;20069;-75
2021/01/03 08:01:32;;;;;;;20.30;12.27;;;7.60;99.90;;;;;;5067295;28;20020;-74
2021/01/03 08:04:07;;;;;;;21.77;13.32;;;7.60;99.90;;;;;;5093144;28;20020;-71
2021/01/03 08:06:33;;;;;;;18.73;10.88;;;7.60;99.90;;;;;;5092538;28;20465;-69
2021/01/03 08:08:58;;;;;;;19.65;10.85;;;7.60;99.90;;;;;;5092790;28;20023;-71
2021/01/03 08:11:41;;;;;;;20.73;12.77;;;7.60;99.90;;;;;;5092316;28;20032;-73
2021/01/03 08:14:17;;;;;;;24.80;13.95;;;7.60;99.90;;;;;;5083812;28;20020;-72
2021/01/03 08:16:43;;;;;;;25.85;15.82;;;7.60;99.90;;;;;;5091069;28;20095;-71
2021/01/03 08:19:09;;;;;;;35.47;18.98;;;7.70;99.90;;;;;;5091225;28;20024;-71
2021/01/03 08:21:39;;;;;;;43.38;13.25;;;7.80;99.90;;;;;;5092323;28;20454;-70
2021/01/03 08:24:16;;;;;;;26.05;11.80;;;7.90;99.90;;;;;;5090491;28;20031;-72
2021/01/03 08:26:50;;;;;;;27.52;14.30;;;8.00;99.90;;;;;;5090015;28;20032;-76
2021/01/03 08:29:38;;;;;;;43.10;21.73;;;8.10;99.90;;;;;;5067040;28;20031;-72
2021/01/03 08:32:21;;;;;;;31.50;17.20;;;8.00;99.90;;;;;;5068054;28;20094;-74
2021/01/03 08:34:47;;;;;;;;;;;8.10;99.90;;;;;;5069867;28;20472;-73
2021/01/03 08:37:21;;;;;;;37.03;18.13;;;8.20;99.90;;;;;;5071515;28;19920;-74
2021/01/03 08:39:49;;;;;;;28.15;16.77;;;8.40;99.90;;;;;;5073590;28;20104;-73
2021/01/03 08:42:34;;;;;;;37.58;18.80;;;8.70;99.90;;;;;;5073567;28;20119;-74
2021/01/03 08:45:01;;;;;;;32.28;17.60;;;9.00;99.90;;;;;;5074831;28;20075;-72
2021/01/03 08:47:37;;;;;;;38.75;15.35;;;9.30;99.90;;;;;;5073291;28;20162;-72
2021/01/03 08:50:07;;;;;;;29.10;13.85;;;9.50;99.90;;;;;;5077478;28;20021;-71
2021/01/03 08:52:33;;;;;;;26.80;15.50;;;9.60;99.90;;;;;;5078480;28;20021;-72
2021/01/03 08:55:13;;;;;;;14.80;9.98;;;9.70;99.90;;;;;;5072319;28;20061;-73
2021/01/03 08:57:41;;;;;;;12.90;7.03;;;9.90;99.90;;;;;;5068427;28;20470;-73
2021/01/03 09:00:14;;;;;;;12.15;7.30;;;9.80;99.90;;;;;;5065441;28;20020;-71
2021/01/03 09:02:43;;;;;;;14.20;7.80;;;10.00;99.90;;;;;;5074588;28;20020;-72
2021/01/03 09:05:14;;;;;;;11.88;7.53;;;10.00;99.90;;;;;;5078559;28;20028;-72
2021/01/03 09:07:41;;;;;;;19.95;9.73;;;10.20;99.90;;;;;;5081865;28;20036;-70
2021/01/03 09:10:08;;;;;;;17.23;8.90;;;10.00;99.90;;;;;;5075900;28;20451;-72
2021/01/03 09:12:40;;;;;;;16.73;9.35;;;9.90;99.90;;;;;;5073022;28;20028;-71
2021/01/03 09:15:30;;;;;;;21.73;9.63;;;9.90;99.90;;;;;;5073780;28;20028;-74
2021/01/03 09:18:32;;;;;;;18.58;10.10;;;10.00;99.90;;;;;;5069780;28;20063;-75
2021/01/03 09:21:10;;;;;;;17.83;10.32;;;10.20;99.90;;;;;;5072849;28;20024;-72
2021/01/03 09:23:41;;;;;;;22.73;10.15;;;10.50;99.90;;;;;;5071395;28;20032;-72
2021/01/03 09:26:08;;;;;;;24.60;12.60;;;10.60;99.90;;;;;;5074099;28;20090;-73
2021/01/03 09:28:42;;;;;;;26.55;14.10;;;10.70;99.90;;;;;;5073306;28;20027;-73
2021/01/03 09:31:23;;;;;;;27.55;12.02;;;10.60;99.90;;;;;;5081291;28;20040;-72
2021/01/03 09:34:17;;;;;;;28.08;14.00;;;10.70;99.90;;;;;;5075958;28;20642;-73
2021/01/03 09:37:05;;;;;;;24.50;12.50;;;10.60;99.90;;;;;;5070357;28;20079;-73
2021/01/03 09:40:04;;;;;;;15.45;7.85;;;10.70;99.90;;;;;;5091836;28;20024;-73
2021/01/03 09:42:33;;;;;;;28.35;15.52;;;10.80;99.90;;;;;;5089592;28;20745;-73
2021/01/03 09:45:37;;;;;;;19.80;11.65;;;11.10;99.90;;;;;;5074495;28;20086;-73
2021/01/03 09:48:03;;;;;;;;;;;11.20;99.90;;;;;;5093671;28;20024;-75
2021/01/03 09:50:41;;;;;;;23.63;10.80;;;11.20;99.90;;;;;;5076694;28;20242;-73
2021/01/03 09:53:19;;;;;;;25.83;14.60;;;11.00;99.90;;;;;;5094685;28;20444;-72
2021/01/03 09:56:07;;;;;;;24.48;13.75;;;11.10;99.90;;;;;;5094140;28;20031;-73
2021/01/03 09:58:38;;;;;;;34.90;15.75;;;11.20;99.90;;;;;;5085551;28;20032;-74
2021/01/03 10:01:07;;;;;;;39.60;15.20;;;11.10;99.90;;;;;;5094507;28;20192;-74
2021/01/03 10:03:38;;;;;;;32.13;14.75;;;11.10;99.90;;;;;;5089645;28;20016;-79
2021/01/03 10:06:38;;;;;;;18.15;10.07;;;11.00;99.90;;;;;;5093632;28;20020;-73
2021/01/03 10:09:31;;;;;;;18.40;9.13;;;10.90;99.90;;;;;;5094713;28;20019;-74
2021/01/03 10:11:57;;;;;;;23.70;12.27;;;10.70;99.90;;;;;;5094385;28;20533;-75
2021/01/03 10:14:36;;;;;;;14.80;7.57;;;10.60;99.90;;;;;;5094694;28;20121;-75
2021/01/03 10:17:19;;;;;;;13.63;7.55;;;10.50;99.90;;;;;;5093639;28;20039;-75
2021/01/03 10:19:45;;;;;;;9.32;5.95;;;10.40;99.90;;;;;;5067747;28;20025;-74
2021/01/03 10:22:35;;;;;;;8.70;5.57;;;10.40;99.90;;;;;;5093648;28;20032;-74
2021/01/03 10:25:06;;;;;;;14.23;8.93;;;10.40;99.90;;;;;;5093267;28;20050;-76
2021/01/03 10:27:32;;;;;;;16.00;9.73;;;10.70;99.90;;;;;;5091279;28;20021;-73
2021/01/03 10:29:58;;;;;;;32.75;18.08;;;11.00;99.90;;;;;;5072070;28;20069;-76
2021/01/03 10:32:26;;;;;;;21.38;11.80;;;11.20;99.90;;;;;;5092043;28;20550;-73
2021/01/03 10:34:52;;;;;;;33.15;15.93;;;11.30;99.90;;;;;;5071413;28;20027;-75
2021/01/03 10:37:18;;;;;;;30.35;14.63;;;11.50;99.90;;;;;;5090381;28;20032;-76
2021/01/03 10:39:48;;;;;;;20.00;11.88;;;11.70;99.90;;;;;;5089742;28;20039;-73
2021/01/03 10:42:14;;;;;;;18.05;8.85;;;11.80;99.90;;;;;;5088767;28;20082;-75
2021/01/03 10:44:40;;;;;;;18.00;7.95;;;11.90;99.90;;;;;;5084068;28;20020;-75
2021/01/03 10:47:06;;;;;;;10.35;6.47;;;11.90;99.90;;;;;;5094068;28;20036;-75
2021/01/03 10:49:32;;;;;;;10.40;6.65;;;11.90;99.90;;;;;;5068923;28;20036;-73
2021/01/03 10:51:58;;;;;;;7.57;5.10;;;12.00;99.90;;;;;;5092928;28;20028;-76
2021/01/03 10:54:26;;;;;;;14.18;7.45;;;12.20;99.90;;;;;;5092451;28;20031;-75
2021/01/03 10:56:54;;;;;;;13.70;7.85;;;12.30;99.90;;;;;;5069160;28;20021;-74
2021/01/03 10:59:21;;;;;;;9.02;5.97;;;12.40;99.90;;;;;;5086078;28;20099;-74
2021/01/03 11:01:47;;;;;;;9.98;5.57;;;12.40;99.90;;;;;;5078831;28;20016;-75
2021/01/03 11:04:17;;;;;;;9.40;5.38;;;12.30;99.90;;;;;;5094794;28;20031;-76
2021/01/03 11:06:45;;;;;;;14.02;7.65;;;12.30;99.90;;;;;;5092920;28;20040;-74
2021/01/03 11:09:31;;;;;;;10.93;6.90;;;12.40;99.90;;;;;;5091273;28;20417;-75
2021/01/03 11:12:02;;;;;;;11.30;7.00;;;12.70;99.90;;;;;;5068099;28;20359;-75
2021/01/03 11:14:29;;;;;;;8.75;6.25;;;12.50;99.90;;;;;;5092383;28;20049;-75
2021/01/03 11:16:56;;;;;;;8.13;6.13;;;12.60;99.90;;;;;;5074669;28;20477;-74
2021/01/03 11:19:22;;;;;;;13.57;7.00;;;12.60;99.90;;;;;;5093052;28;20016;-76
2021/01/03 11:21:53;;;;;;;16.23;8.73;;;12.70;99.90;;;;;;5093013;28;20119;-75
2021/01/03 11:24:19;;;;;;;17.60;10.25;;;;;;;;;;5062686;28;20032;-74
2021/01/03 11:26:45;;;;;;;13.68;8.23;;;13.20;99.90;;;;;;5092962;28;20035;-75
2021/01/03 11:29:15;;;;;;;10.95;5.95;;;12.90;99.90;;;;;;5092550;28;20032;-74
2021/01/03 11:31:49;;;;;;;14.77;7.43;;;12.90;99.90;;;;;;5092485;28;20047;-75
2021/01/03 11:34:18;;;;;;;13.27;7.15;;;12.90;99.90;;;;;;5083780;28;20032;-74
2021/01/03 11:37:06;;;;;;;12.98;6.72;;;13.00;99.90;;;;;;5086762;28;20028;-75
2021/01/03 11:39:33;;;;;;;13.55;6.70;;;13.00;99.90;;;;;;5092657;28;20178;-75
2021/01/03 11:42:01;;;;;;;14.35;7.15;;;13.10;99.90;;;;;;5091092;28;20389;-74
2021/01/03 11:44:27;;;;;;;15.60;8.80;;;13.20;99.90;;;;;;5088005;28;20029;-73
2021/01/03 11:47:05;;;;;;;14.05;6.22;;;13.30;99.90;;;;;;5059564;28;20033;-77
2021/01/03 11:49:34;;;;;;;17.33;9.43;;;13.40;99.90;;;;;;5087995;28;20076;-76
2021/01/03 11:52:01;;;;;;;16.20;9.32;;;;;;;;;;5091514;28;20028;-74
2021/01/03 11:54:30;;;;;;;12.20;7.53;;;13.40;99.90;;;;;;5095355;28;20024;-74
2021/01/03 11:56:57;;;;;;;13.90;7.60;;;13.60;99.90;;;;;;5091072;28;20024;-72
2021/01/03 11:59:23;;;;;;;9.10;5.35;;;13.80;99.90;;;;;;5093763;28;20028;-78
2021/01/03 12:01:55;;;;;;;12.60;5.93;;;13.80;99.90;;;;;;5070066;28;20078;-78
2021/01/03 12:04:21;;;;;;;13.20;6.78;;;;;;;;;;5090841;28;20020;-77
2021/01/03 12:06:52;;;;;;;10.73;6.65;;;;;;;;;;5083384;28;20162;-76
2021/01/03 12:09:18;;;;;;;9.75;5.75;;;;;;;;;;5089206;28;20020;-77
2021/01/03 12:11:44;;;;;;;9.02;4.90;;;;;;;;;;5074020;28;20032;-76
2021/01/03 12:14:11;;;;;;;9.43;6.50;;;13.80;99.90;;;;;;5094716;28;20066;-75
2021/01/03 12:16:37;;;;;;;9.65;6.22;;;13.60;99.90;;;;;;5092917;28;20052;-76
2021/01/03 12:19:03;;;;;;;6.28;4.35;;;13.50;99.90;;;;;;5094334;28;20093;-76
2021/01/03 12:21:32;;;;;;;10.75;7.03;;;;;;;;;;5093176;28;20079;-74
2021/01/03 12:24:01;;;;;;;16.60;9.20;;;13.20;99.90;;;;;;5093350;28;20016;-74
2021/01/03 12:26:37;;;;;;;19.15;10.57;;;13.20;99.90;;;;;;5071066;28;20027;-75
2021/01/03 12:29:04;;;;;;;21.27;9.73;;;;;;;;;;5090747;28;20103;-74
2021/01/03 12:31:39;;;;;;;24.83;11.75;;;13.00;99.90;;;;;;5077792;28;20040;-74
2021/01/03 12:34:06;;;;;;;21.17;9.75;;;13.00;99.90;;;;;;5096489;28;20038;-75
2021/01/03 12:36:33;;;;;;;11.05;6.65;;;12.90;99.90;;;;;;5094994;28;20028;-75
2021/01/03 12:38:59;;;;;;;10.68;5.63;;;12.90;99.90;;;;;;5096048;28;20331;-76
2021/01/03 12:41:25;;;;;;;9.85;6.07;;;12.70;99.90;;;;;;5095299;28;20027;-74
2021/01/03 12:43:51;;;;;;;15.88;8.02;;;12.80;99.90;;;;;;5073240;28;20459;-74
2021/01/03 12:46:46;;;;;;;17.00;7.88;;;12.70;99.90;;;;;;5095009;28;20454;-78
2021/01/03 12:49:12;;;;;;;20.60;9.27;;;12.60;99.90;;;;;;5091040;28;20123;-74
2021/01/03 12:51:38;;;;;;;30.92;13.38;;;12.80;99.90;;;;;;5094673;28;20483;-74
2021/01/03 12:54:05;;;;;;;14.23;7.03;;;12.80;99.90;;;;;;5063652;28;20032;-75
2021/01/03 12:56:32;;;;;;;10.35;6.53;;;;;;;;;;5095334;28;20020;-75
2021/01/03 12:59:03;;;;;;;23.88;11.63;;;;;;;;;;5073244;28;20036;-77
2021/01/03 13:01:33;;;;;;;26.63;14.68;;;;;;;;;;5092762;28;20023;-74
2021/01/03 13:04:00;;;;;;;29.92;13.95;;;12.70;99.90;;;;;;5099996;28;20024;-74
2021/01/03 13:06:26;;;;;;;32.92;14.77;;;12.70;99.90;;;;;;5093387;28;20032;-73
2021/01/03 13:08:53;;;;;;;13.55;7.53;;;;;;;;;;5095389;28;20020;-75
2021/01/03 13:11:19;;;;;;;29.73;14.77;;;12.60;99.90;;;;;;5090905;28;20017;-76
2021/01/03 13:13:46;;;;;;;21.42;11.57;;;12.60;99.90;;;;;;5058061;28;20417;-74
2021/01/03 13:16:11;;;;;;;30.38;13.95;;;12.60;99.90;;;;;;5087277;28;20056;-75
2021/01/03 13:18:37;;;;;;;26.75;11.95;;;12.50;99.90;;;;;;5094461;28;20545;-74
2021/01/03 13:21:06;;;;;;;28.73;11.45;;;12.40;99.90;;;;;;5095113;28;20074;-73
2021/01/03 13:23:33;;;;;;;13.85;7.05;;;12.40;99.90;;;;;;5075489;28;20024;-73
2021/01/03 13:25:59;;;;;;;14.60;6.75;;;12.30;99.90;;;;;;5093870;28;20053;-80
2021/01/03 13:28:25;;;;;;;10.13;6.15;;;12.30;99.90;;;;;;5082431;28;20021;-76
2021/01/03 13:30:51;;;;;;;7.95;4.57;;;12.30;99.90;;;;;;5073804;28;20089;-74
2021/01/03 13:33:17;;;;;;;9.35;4.57;;;12.20;99.90;;;;;;5095031;28;20453;-74